createdAt,value
2023-04-26T00:00:19.185Z,694.00
2023-04-26T00:01:19.223Z,696.00
2023-04-26T00:02:19.396Z,695.00
2023-04-26T00:03:19.424Z,695.00
2023-04-26T00:04:19.516Z,694.00
2023-04-26T00:05:19.573Z,692.00
2023-04-26T00:06:19.360Z,693.00
2023-04-26T00:07:19.415Z,694.00
2023-04-26T00:08:19.438Z,696.00
2023-04-26T00:09:19.483Z,696.00
2023-04-26T00:10:19.494Z,695.00
2023-04-26T00:11:19.522Z,698.00
2023-04-26T00:12:19.567Z,698.00
2023-04-26T00:13:19.582Z,698.00
2023-04-26T00:14:19.612Z,698.00
2023-04-26T00:15:19.656Z,695.00
2023-04-26T00:16:19.711Z,694.00
2023-04-26T00:17:19.718Z,695.00
2023-04-26T00:18:19.767Z,694.00
2023-04-26T00:19:19.773Z,690.00
2023-04-26T00:20:19.806Z,690.00
2023-04-26T00:21:19.819Z,693.00
2023-04-26T00:22:19.846Z,693.00
2023-04-26T00:23:19.882Z,693.00
2023-04-26T00:24:19.916Z,694.00
2023-04-26T00:25:19.948Z,694.00
2023-04-26T00:26:19.954Z,693.00
2023-04-26T00:27:19.982Z,693.00
2023-04-26T00:28:20.003Z,694.00
2023-04-26T00:29:20.034Z,696.00
2023-04-26T00:30:20.075Z,695.00
2023-04-26T00:31:20.133Z,694.00
2023-04-26T00:32:20.182Z,693.00
2023-04-26T00:33:20.131Z,696.00
2023-04-26T00:34:20.196Z,697.00
2023-04-26T00:35:20.173Z,696.00
2023-04-26T00:36:20.204Z,695.00
2023-04-26T00:37:20.974Z,693.00
2023-04-26T00:38:20.243Z,692.00
2023-04-26T00:39:20.279Z,694.00
2023-04-26T00:40:20.310Z,691.00
2023-04-26T00:41:20.353Z,691.00
2023-04-26T00:42:20.373Z,690.00
2023-04-26T00:43:20.974Z,690.00
2023-04-26T00:44:20.443Z,690.00
2023-04-26T00:45:20.451Z,690.00
2023-04-26T00:46:20.587Z,687.00
2023-04-26T00:47:20.482Z,682.00
2023-04-26T00:48:20.502Z,681.00
2023-04-26T00:49:20.528Z,681.00
2023-04-26T00:50:20.552Z,684.00
2023-04-26T00:51:20.575Z,685.00
2023-04-26T00:52:20.599Z,685.00
2023-04-26T00:53:20.626Z,685.00
2023-04-26T00:54:20.659Z,688.00
2023-04-26T00:55:20.729Z,688.00
2023-04-26T00:56:20.704Z,688.00
2023-04-26T00:57:20.718Z,687.00
2023-04-26T00:58:20.732Z,685.00
2023-04-26T00:59:20.817Z,687.00
2023-04-26T01:00:20.797Z,687.00
2023-04-26T01:01:20.860Z,684.00
2023-04-26T01:02:20.946Z,686.00
2023-04-26T01:03:20.937Z,686.00
2023-04-26T01:04:21.000Z,686.00
2023-04-26T01:05:20.916Z,684.00
2023-04-26T01:06:20.936Z,683.00
2023-04-26T01:07:20.961Z,683.00
2023-04-26T01:08:21.150Z,683.00
2023-04-26T01:09:21.019Z,684.00
2023-04-26T01:10:21.038Z,683.00
2023-04-26T01:11:21.065Z,681.00
2023-04-26T01:12:21.088Z,678.00
2023-04-26T01:13:21.115Z,678.00
2023-04-26T01:14:21.151Z,679.00
2023-04-26T01:15:21.173Z,678.00
2023-04-26T01:16:21.211Z,677.00
2023-04-26T01:17:21.265Z,674.00
2023-04-26T01:18:21.247Z,674.00
2023-04-26T01:19:21.274Z,673.00
2023-04-26T01:20:21.292Z,671.00
2023-04-26T01:21:21.317Z,672.00
2023-04-26T01:22:21.345Z,672.00
2023-04-26T01:23:21.356Z,672.00
2023-04-26T01:24:21.387Z,672.00
2023-04-26T01:25:21.402Z,672.00
2023-04-26T01:26:21.412Z,672.00
2023-04-26T01:27:21.457Z,671.00
2023-04-26T01:28:21.483Z,671.00
2023-04-26T01:29:21.530Z,670.00
2023-04-26T01:30:21.531Z,669.00
2023-04-26T01:31:21.608Z,670.00
2023-04-26T01:32:21.585Z,669.00
2023-04-26T01:33:21.629Z,670.00
2023-04-26T01:34:21.656Z,672.00
2023-04-26T01:35:21.675Z,671.00
2023-04-26T01:36:21.684Z,667.00
2023-04-26T01:37:21.706Z,667.00
2023-04-26T01:38:21.730Z,665.00
2023-04-26T01:39:21.741Z,663.00
2023-04-26T01:40:21.786Z,663.00
2023-04-26T01:41:21.792Z,666.00
2023-04-26T01:42:21.826Z,662.00
2023-04-26T01:43:21.860Z,665.00
2023-04-26T01:44:21.880Z,667.00
2023-04-26T01:45:21.907Z,668.00
2023-04-26T01:46:21.986Z,669.00
2023-04-26T01:47:21.997Z,671.00
2023-04-26T01:48:22.046Z,671.00
2023-04-26T01:49:22.029Z,673.00
2023-04-26T01:50:22.061Z,672.00
2023-04-26T01:51:22.084Z,672.00
2023-04-26T01:52:22.126Z,671.00
2023-04-26T01:53:22.135Z,671.00
2023-04-26T01:54:22.174Z,671.00
2023-04-26T01:55:22.192Z,671.00
2023-04-26T01:56:22.214Z,672.00
2023-04-26T01:57:22.242Z,673.00
2023-04-26T01:58:22.263Z,671.00
2023-04-26T01:59:22.306Z,673.00
2023-04-26T02:00:22.323Z,671.00
2023-04-26T02:01:22.428Z,669.00
2023-04-26T02:02:22.433Z,667.00
2023-04-26T02:03:22.489Z,671.00
2023-04-26T02:04:22.452Z,673.00
2023-04-26T02:05:22.691Z,669.00
2023-04-26T02:06:22.506Z,669.00
2023-04-26T02:07:22.535Z,669.00
2023-04-26T02:08:22.574Z,669.00
2023-04-26T02:09:22.584Z,669.00
2023-04-26T02:10:22.623Z,667.00
2023-04-26T02:11:22.649Z,668.00
2023-04-26T02:12:22.699Z,668.00
2023-04-26T02:13:22.718Z,668.00
2023-04-26T02:14:22.742Z,666.00
2023-04-26T02:15:22.768Z,666.00
2023-04-26T02:16:22.826Z,668.00
2023-04-26T02:17:22.815Z,667.00
2023-04-26T02:18:22.850Z,667.00
2023-04-26T02:19:22.876Z,668.00
2023-04-26T02:20:22.919Z,667.00
2023-04-26T02:21:22.948Z,666.00
2023-04-26T02:22:22.965Z,665.00
2023-04-26T02:23:22.985Z,667.00
2023-04-26T02:24:23.037Z,666.00
2023-04-26T02:25:23.173Z,666.00
2023-04-26T02:26:23.087Z,667.00
2023-04-26T02:27:23.106Z,668.00
2023-04-26T02:28:23.141Z,666.00
2023-04-26T02:29:36.233Z,667.00
2023-04-26T02:30:24.138Z,668.00
2023-04-26T02:31:23.369Z,672.00
2023-04-26T02:32:23.098Z,675.00
2023-04-26T02:33:23.020Z,679.00
2023-04-26T02:34:22.997Z,678.00
2023-04-26T02:35:22.949Z,675.00
2023-04-26T02:36:22.906Z,676.00
2023-04-26T02:37:22.863Z,675.00
2023-04-26T02:38:22.821Z,676.00
2023-04-26T02:39:22.816Z,674.00
2023-04-26T02:40:22.854Z,672.00
2023-04-26T02:41:22.865Z,672.00
2023-04-26T02:42:22.893Z,673.00
2023-04-26T02:43:22.920Z,673.00
2023-04-26T02:44:22.948Z,672.00
2023-04-26T02:45:22.963Z,673.00
2023-04-26T02:46:23.011Z,671.00
2023-04-26T02:47:23.056Z,673.00
2023-04-26T02:48:23.044Z,673.00
2023-04-26T02:49:23.086Z,670.00
2023-04-26T02:50:23.105Z,670.00
2023-04-26T02:51:23.143Z,670.00
2023-04-26T02:52:23.167Z,671.00
2023-04-26T02:53:23.198Z,673.00
2023-04-26T02:54:23.222Z,674.00
2023-04-26T02:55:23.299Z,676.00
2023-04-26T02:56:23.276Z,676.00
2023-04-26T02:57:23.300Z,678.00
2023-04-26T02:58:23.362Z,677.00
2023-04-26T02:59:23.364Z,675.00
2023-04-26T03:00:23.383Z,672.00
2023-04-26T03:01:23.434Z,672.00
2023-04-26T03:02:23.517Z,674.00
2023-04-26T03:03:23.745Z,673.00
2023-04-26T03:04:23.518Z,669.00
2023-04-26T03:05:23.477Z,668.00
2023-04-26T03:06:23.501Z,668.00
2023-04-26T03:07:23.538Z,670.00
2023-04-26T03:08:23.569Z,669.00
2023-04-26T03:09:23.594Z,673.00
2023-04-26T03:10:23.627Z,673.00
2023-04-26T03:11:23.655Z,670.00
2023-04-26T03:12:23.685Z,668.00
2023-04-26T03:13:23.712Z,668.00
2023-04-26T03:14:23.738Z,668.00
2023-04-26T03:15:23.773Z,668.00
2023-04-26T03:16:23.917Z,671.00
2023-04-26T03:17:23.862Z,674.00
2023-04-26T03:18:23.869Z,673.00
2023-04-26T03:19:23.876Z,673.00
2023-04-26T03:20:23.905Z,673.00
2023-04-26T03:21:23.932Z,670.00
2023-04-26T03:22:23.957Z,670.00
2023-04-26T03:23:23.993Z,670.00
2023-04-26T03:24:24.036Z,669.00
2023-04-26T03:25:24.056Z,670.00
2023-04-26T03:26:24.096Z,669.00
2023-04-26T03:27:24.142Z,670.00
2023-04-26T03:28:24.168Z,669.00
2023-04-26T03:29:24.238Z,666.00
2023-04-26T03:30:24.229Z,667.00
2023-04-26T03:31:24.321Z,665.00
2023-04-26T03:32:24.297Z,665.00
2023-04-26T03:33:24.342Z,668.00
2023-04-26T03:34:24.382Z,666.00
2023-04-26T03:35:24.572Z,665.00
2023-04-26T03:36:24.449Z,663.00
2023-04-26T03:37:24.471Z,662.00
2023-04-26T03:38:24.493Z,661.00
2023-04-26T03:39:24.539Z,663.00
2023-04-26T03:40:24.578Z,662.00
2023-04-26T03:41:24.597Z,664.00
2023-04-26T03:42:24.636Z,661.00
2023-04-26T03:43:24.649Z,662.00
2023-04-26T03:44:24.668Z,663.00
2023-04-26T03:45:24.721Z,661.00
2023-04-26T03:46:24.794Z,661.00
2023-04-26T03:47:24.842Z,663.00
2023-04-26T03:48:24.814Z,664.00
2023-04-26T03:49:24.848Z,661.00
2023-04-26T03:50:24.885Z,661.00
2023-04-26T03:51:24.894Z,663.00
2023-04-26T03:52:24.916Z,663.00
2023-04-26T03:53:24.948Z,662.00
2023-04-26T03:54:25.017Z,663.00
2023-04-26T03:55:25.007Z,664.00
2023-04-26T03:56:25.034Z,664.00
2023-04-26T03:57:25.060Z,665.00
2023-04-26T03:58:25.104Z,662.00
2023-04-26T03:59:25.105Z,660.00
2023-04-26T04:00:25.128Z,661.00
2023-04-26T04:01:25.148Z,663.00
2023-04-26T04:02:25.249Z,665.00
2023-04-26T04:03:25.471Z,664.00
2023-04-26T04:04:25.432Z,662.00
2023-04-26T04:05:25.312Z,660.00
2023-04-26T04:06:25.276Z,662.00
2023-04-26T04:07:25.307Z,662.00
2023-04-26T04:08:25.333Z,662.00
2023-04-26T04:09:25.367Z,661.00
2023-04-26T04:10:25.376Z,660.00
2023-04-26T04:11:25.400Z,658.00
2023-04-26T04:12:25.425Z,657.00
2023-04-26T04:13:25.438Z,658.00
2023-04-26T04:14:25.469Z,655.00
2023-04-26T04:15:25.520Z,657.00
2023-04-26T04:16:25.569Z,657.00
2023-04-26T04:17:25.553Z,659.00
2023-04-26T04:18:25.590Z,657.00
2023-04-26T04:19:25.616Z,656.00
2023-04-26T04:20:25.640Z,655.00
2023-04-26T04:21:25.635Z,655.00
2023-04-26T04:22:25.662Z,652.00
2023-04-26T04:23:25.687Z,651.00
2023-04-26T04:24:25.762Z,653.00
2023-04-26T04:25:25.749Z,655.00
2023-04-26T04:26:25.805Z,658.00
2023-04-26T04:27:25.794Z,658.00
2023-04-26T04:28:25.833Z,659.00
2023-04-26T04:29:25.871Z,658.00
2023-04-26T04:30:25.915Z,656.00
2023-04-26T04:31:25.979Z,654.00
2023-04-26T04:32:26.000Z,651.00
2023-04-26T04:33:26.001Z,650.00
2023-04-26T04:34:26.056Z,651.00
2023-04-26T04:35:26.075Z,651.00
2023-04-26T04:36:26.103Z,653.00
2023-04-26T04:37:26.127Z,654.00
2023-04-26T04:38:26.167Z,652.00
2023-04-26T04:39:26.193Z,651.00
2023-04-26T04:40:26.229Z,650.00
2023-04-26T04:41:26.255Z,650.00
2023-04-26T04:42:26.296Z,651.00
2023-04-26T04:43:26.317Z,650.00
2023-04-26T04:44:26.360Z,652.00
2023-04-26T04:45:26.384Z,652.00
2023-04-26T04:46:26.469Z,654.00
2023-04-26T04:47:26.565Z,653.00
2023-04-26T04:48:26.479Z,652.00
2023-04-26T04:49:26.502Z,654.00
2023-04-26T04:50:26.544Z,655.00
2023-04-26T04:51:26.579Z,654.00
2023-04-26T04:52:26.596Z,653.00
2023-04-26T04:53:26.621Z,651.00
2023-04-26T04:54:26.653Z,650.00
2023-04-26T04:55:26.675Z,649.00
2023-04-26T04:56:26.719Z,649.00
2023-04-26T04:57:26.745Z,649.00
2023-04-26T04:58:26.767Z,650.00
2023-04-26T05:00:26.820Z,650.00
2023-04-26T05:01:26.905Z,650.00
2023-04-26T05:02:26.986Z,647.00
2023-04-26T05:03:26.998Z,653.00
2023-04-26T05:04:27.177Z,683.00
2023-04-26T05:05:26.988Z,681.00
2023-04-26T05:06:27.009Z,691.00
2023-04-26T05:07:28.958Z,711.00
2023-04-26T05:08:27.066Z,709.00
2023-04-26T05:09:27.098Z,808.00
2023-04-26T05:10:27.121Z,829.00
2023-04-26T05:11:27.128Z,890.00
2023-04-26T05:12:27.202Z,895.00
2023-04-26T05:13:27.155Z,773.00
2023-04-26T05:14:27.187Z,777.00
2023-04-26T05:15:27.243Z,753.00
2023-04-26T05:16:27.268Z,737.00
2023-04-26T05:17:27.251Z,843.00
2023-04-26T05:18:28.170Z,852.00
2023-04-26T05:19:27.159Z,857.00
2023-04-26T05:20:27.129Z,905.00
2023-04-26T05:21:27.121Z,907.00
2023-04-26T05:22:27.618Z,910.00
2023-04-26T05:23:27.086Z,923.00
2023-04-26T05:24:27.093Z,952.00
2023-04-26T05:25:27.079Z,946.00
2023-04-26T05:26:27.067Z,959.00
2023-04-26T05:27:27.033Z,897.00
2023-04-26T05:28:27.044Z,923.00
2023-04-26T05:29:27.635Z,1001.00
2023-04-26T05:30:26.989Z,991.00
2023-04-26T05:31:27.221Z,984.00
2023-04-26T05:32:26.953Z,898.00
2023-04-26T05:33:26.939Z,898.00
2023-04-26T05:34:26.946Z,901.00
2023-04-26T05:35:26.911Z,912.00
2023-04-26T05:36:29.160Z,1024.00
2023-04-26T05:37:29.831Z,1047.00
2023-04-26T05:38:26.809Z,1046.00
2023-04-26T05:39:26.778Z,1023.00
2023-04-26T05:40:26.788Z,930.00
2023-04-26T05:41:26.733Z,915.00
2023-04-26T05:42:26.706Z,910.00
2023-04-26T05:43:28.255Z,906.00
2023-04-26T05:44:26.643Z,941.00
2023-04-26T05:45:26.650Z,979.00
2023-04-26T05:46:27.234Z,981.00
2023-04-26T05:47:26.700Z,966.00
2023-04-26T05:48:26.655Z,1001.00
2023-04-26T05:49:26.573Z,1000.00
2023-04-26T05:50:28.169Z,983.00
2023-04-26T05:51:26.522Z,911.00
2023-04-26T05:52:26.475Z,902.00
2023-04-26T05:53:26.601Z,892.00
2023-04-26T05:54:26.412Z,885.00
2023-04-26T05:55:26.388Z,877.00
2023-04-26T05:56:26.347Z,875.00
2023-04-26T05:57:26.384Z,898.00
2023-04-26T05:58:26.279Z,906.00
2023-04-26T05:59:26.338Z,905.00
2023-04-26T06:00:26.350Z,902.00
2023-04-26T06:01:26.381Z,907.00
2023-04-26T06:02:26.494Z,914.00
2023-04-26T06:03:26.572Z,916.00
2023-04-26T06:04:26.725Z,914.00
2023-04-26T06:05:26.562Z,908.00
2023-04-26T06:06:26.688Z,910.00
2023-04-26T06:07:26.525Z,913.00
2023-04-26T06:08:26.553Z,914.00
2023-04-26T06:09:26.616Z,914.00
2023-04-26T06:10:26.653Z,906.00
2023-04-26T06:11:26.653Z,902.00
2023-04-26T06:12:26.689Z,900.00
2023-04-26T06:13:26.725Z,897.00
2023-04-26T06:14:30.517Z,895.00
2023-04-26T06:15:26.725Z,894.00
2023-04-26T06:16:26.734Z,895.00
2023-04-26T06:17:26.681Z,895.00
2023-04-26T06:18:26.630Z,898.00
2023-04-26T06:19:26.591Z,899.00
2023-04-26T06:20:26.588Z,900.00
2023-04-26T06:21:26.549Z,896.00
2023-04-26T06:22:26.513Z,878.00
2023-04-26T06:23:26.507Z,856.00
2023-04-26T06:24:26.453Z,858.00
2023-04-26T06:25:26.435Z,874.00
2023-04-26T06:26:26.394Z,907.00
2023-04-26T06:27:26.375Z,926.00
2023-04-26T06:28:26.347Z,932.00
2023-04-26T06:29:26.316Z,926.00
2023-04-26T06:30:26.298Z,911.00
2023-04-26T06:31:26.292Z,920.00
2023-04-26T06:32:26.254Z,919.00
2023-04-26T06:33:26.188Z,924.00
2023-04-26T06:34:26.180Z,924.00
2023-04-26T06:35:26.126Z,925.00
2023-04-26T06:36:26.110Z,927.00
2023-04-26T06:37:26.075Z,933.00
2023-04-26T06:38:26.021Z,938.00
2023-04-26T06:39:25.996Z,940.00
2023-04-26T06:40:25.969Z,945.00
2023-04-26T06:41:25.986Z,947.00
2023-04-26T06:42:26.578Z,946.00
2023-04-26T06:43:26.038Z,948.00
2023-04-26T06:44:26.056Z,1003.00
2023-04-26T06:45:26.116Z,1007.00
2023-04-26T06:46:26.172Z,998.00
2023-04-26T06:47:26.202Z,998.00
2023-04-26T06:48:26.201Z,1005.00
2023-04-26T06:49:26.243Z,1010.00
2023-04-26T06:50:26.330Z,1012.00
2023-04-26T06:51:26.307Z,1013.00
2023-04-26T06:52:26.359Z,1011.00
2023-04-26T06:53:26.379Z,994.00
2023-04-26T06:54:26.406Z,991.00
2023-04-26T06:55:26.461Z,989.00
2023-04-26T06:56:26.507Z,982.00
2023-04-26T06:57:26.537Z,967.00
2023-04-26T06:58:26.572Z,949.00
2023-04-26T06:59:26.610Z,946.00
2023-04-26T07:00:26.683Z,962.00
2023-04-26T07:01:26.733Z,965.00
2023-04-26T07:02:26.881Z,969.00
2023-04-26T07:03:26.924Z,955.00
2023-04-26T07:04:26.982Z,957.00
2023-04-26T07:05:26.838Z,953.00
2023-04-26T07:06:26.873Z,956.00
2023-04-26T07:07:26.930Z,957.00
2023-04-26T07:08:26.965Z,951.00
2023-04-26T07:09:26.984Z,925.00
2023-04-26T07:10:27.298Z,914.00
2023-04-26T07:11:27.118Z,927.00
2023-04-26T07:12:27.032Z,943.00
2023-04-26T07:13:28.194Z,950.00
2023-04-26T07:14:26.982Z,889.00
2023-04-26T07:15:26.950Z,908.00
2023-04-26T07:16:27.181Z,933.00
2023-04-26T07:17:26.898Z,1072.00
2023-04-26T07:18:27.692Z,1083.00
2023-04-26T07:19:26.840Z,1168.00
2023-04-26T07:20:27.184Z,1200.00
2023-04-26T07:21:26.830Z,1363.00
2023-04-26T07:22:27.603Z,1425.00
2023-04-26T07:23:26.718Z,1367.00
2023-04-26T07:24:26.717Z,1526.00
2023-04-26T07:25:26.658Z,1284.00
2023-04-26T07:26:27.150Z,1200.00
2023-04-26T07:27:26.639Z,1180.00
2023-04-26T07:28:26.667Z,1175.00
2023-04-26T07:29:26.689Z,1181.00
2023-04-26T07:30:26.732Z,1191.00
2023-04-26T07:31:26.725Z,1203.00
2023-04-26T07:32:26.919Z,1214.00
2023-04-26T07:33:26.847Z,1226.00
2023-04-26T07:34:26.795Z,1228.00
2023-04-26T07:35:27.611Z,1226.00
2023-04-26T07:36:26.845Z,1226.00
2023-04-26T07:37:28.701Z,1230.00
2023-04-26T07:38:28.716Z,1228.00
2023-04-26T07:39:27.685Z,1233.00
2023-04-26T07:40:27.859Z,1236.00
2023-04-26T07:41:26.861Z,1226.00
2023-04-26T07:42:27.655Z,1155.00
2023-04-26T07:43:26.768Z,1172.00
2023-04-26T07:44:26.742Z,1136.00
2023-04-26T07:45:26.774Z,1059.00
2023-04-26T07:46:26.753Z,1081.00
2023-04-26T07:47:26.688Z,1014.00
2023-04-26T07:48:26.627Z,1079.00
2023-04-26T07:49:26.651Z,1082.00
2023-04-26T07:50:26.574Z,1031.00
2023-04-26T07:51:26.527Z,1100.00
2023-04-26T07:52:26.500Z,1114.00
2023-04-26T07:53:26.484Z,1084.00
2023-04-26T07:54:27.210Z,1071.00
2023-04-26T07:55:26.426Z,1054.00
2023-04-26T07:56:31.397Z,1089.00
2023-04-26T07:57:26.316Z,1097.00
2023-04-26T07:58:26.295Z,1009.00
2023-04-26T07:59:26.266Z,1039.00
2023-04-26T08:00:26.237Z,1039.00
2023-04-26T08:01:26.219Z,1046.00
2023-04-26T08:02:41.061Z,1024.00
2023-04-26T08:03:27.372Z,983.00
2023-04-26T08:04:26.175Z,974.00
2023-04-26T08:05:26.856Z,980.00
2023-04-26T08:06:26.115Z,996.00
2023-04-26T08:07:26.016Z,1008.00
2023-04-26T08:08:25.984Z,993.00
2023-04-26T08:09:25.961Z,989.00
2023-04-26T08:10:25.944Z,985.00
2023-04-26T08:11:25.925Z,984.00
2023-04-26T08:12:26.876Z,1074.00
2023-04-26T08:13:29.304Z,1435.00
2023-04-26T08:14:25.840Z,1642.00
2023-04-26T08:15:25.809Z,1834.00
2023-04-26T08:16:25.896Z,1647.00
2023-04-26T08:17:25.847Z,1663.00
2023-04-26T08:18:25.726Z,1534.00
2023-04-26T08:19:26.728Z,1527.00
2023-04-26T08:20:25.692Z,1517.00
2023-04-26T08:21:25.668Z,1510.00
2023-04-26T08:22:26.213Z,1523.00
2023-04-26T08:23:25.610Z,1497.00
2023-04-26T08:24:25.589Z,1308.00
2023-04-26T08:25:25.568Z,1284.00
2023-04-26T08:26:25.529Z,1124.00
2023-04-26T08:27:25.505Z,1103.00
2023-04-26T08:28:25.472Z,1126.00
2023-04-26T08:29:25.451Z,1113.00
2023-04-26T08:30:25.423Z,1086.00
2023-04-26T08:31:25.470Z,1005.00
2023-04-26T08:32:25.371Z,998.00
2023-04-26T08:33:25.322Z,992.00
2023-04-26T08:34:25.273Z,996.00
2023-04-26T08:35:25.232Z,1004.00
2023-04-26T08:36:25.196Z,1010.00
2023-04-26T08:37:25.342Z,1008.00
2023-04-26T08:38:25.225Z,1015.00
2023-04-26T08:39:25.246Z,1020.00
2023-04-26T08:40:25.288Z,1029.00
2023-04-26T08:41:25.282Z,1036.00
2023-04-26T08:42:26.221Z,1043.00
2023-04-26T08:43:25.267Z,1047.00
2023-04-26T08:44:25.357Z,1052.00
2023-04-26T08:45:25.238Z,1055.00
2023-04-26T08:46:25.212Z,1057.00
2023-04-26T08:47:25.529Z,1060.00
2023-04-26T08:48:25.160Z,1068.00
2023-04-26T08:49:25.081Z,1074.00
2023-04-26T08:50:25.027Z,1080.00
2023-04-26T08:51:24.992Z,1086.00
2023-04-26T08:52:25.740Z,1086.00
2023-04-26T08:53:24.918Z,1086.00
2023-04-26T08:54:25.728Z,1088.00
2023-04-26T08:55:24.853Z,1089.00
2023-04-26T08:56:24.810Z,1089.00
2023-04-26T08:57:24.790Z,1094.00
2023-04-26T08:58:24.745Z,1100.00
2023-04-26T08:59:24.715Z,1101.00
2023-04-26T09:00:25.231Z,1099.00
2023-04-26T09:01:24.678Z,1098.00
2023-04-26T09:02:24.856Z,1095.00
2023-04-26T09:03:24.784Z,1092.00
2023-04-26T09:04:25.492Z,1097.00
2023-04-26T09:05:25.053Z,1097.00
2023-04-26T09:06:24.768Z,1101.00
2023-04-26T09:07:25.741Z,1105.00
2023-04-26T09:08:24.935Z,1107.00
2023-04-26T09:09:24.840Z,1109.00
2023-04-26T09:10:24.874Z,1111.00
2023-04-26T09:11:24.905Z,1113.00
2023-04-26T09:12:24.924Z,1105.00
2023-04-26T09:13:24.960Z,1116.00
2023-04-26T09:14:24.997Z,1128.00
2023-04-26T09:15:24.993Z,1184.00
2023-04-26T09:16:25.062Z,1199.00
2023-04-26T09:17:25.055Z,1428.00
2023-04-26T09:18:25.035Z,1486.00
2023-04-26T09:19:25.069Z,1555.00
2023-04-26T09:20:25.065Z,1595.00
2023-04-26T09:21:25.131Z,1598.00
2023-04-26T09:22:25.187Z,1552.00
2023-04-26T09:23:25.184Z,1477.00
2023-04-26T09:24:26.750Z,1457.00
2023-04-26T09:25:25.746Z,1355.00
2023-04-26T09:26:25.172Z,1317.00
2023-04-26T09:27:25.158Z,1248.00
2023-04-26T09:28:26.178Z,1229.00
2023-04-26T09:29:25.144Z,1320.00
2023-04-26T09:30:25.128Z,1367.00
2023-04-26T09:31:25.144Z,1354.00
2023-04-26T09:32:25.091Z,1314.00
2023-04-26T09:33:25.126Z,1323.00
2023-04-26T09:34:25.077Z,1164.00
2023-04-26T09:35:25.070Z,1186.00
2023-04-26T09:36:25.068Z,1203.00
2023-04-26T09:37:25.045Z,1203.00
2023-04-26T09:38:25.736Z,1215.00
2023-04-26T09:39:25.028Z,1191.00
2023-04-26T09:40:25.015Z,1181.00
2023-04-26T09:41:25.018Z,1186.00
2023-04-26T09:42:25.002Z,1150.00
2023-04-26T09:43:25.011Z,1148.00
2023-04-26T09:44:25.757Z,1123.00
2023-04-26T09:45:25.026Z,1130.00
2023-04-26T09:46:25.232Z,1168.00
2023-04-26T09:47:25.055Z,1175.00
2023-04-26T09:48:25.026Z,1180.00
2023-04-26T09:49:25.108Z,1206.00
2023-04-26T09:50:25.744Z,1193.00
2023-04-26T09:51:25.006Z,1190.00
2023-04-26T09:52:25.004Z,1174.00
2023-04-26T09:53:25.070Z,1167.00
2023-04-26T09:54:24.979Z,1167.00
2023-04-26T09:55:34.038Z,1159.00
2023-04-26T09:56:25.984Z,1135.00
2023-04-26T09:57:26.673Z,1117.00
2023-04-26T09:58:24.953Z,1121.00
2023-04-26T09:59:24.920Z,1131.00
2023-04-26T10:00:25.757Z,1123.00
2023-04-26T10:01:25.877Z,1121.00
2023-04-26T10:02:25.012Z,1130.00
2023-04-26T10:03:25.777Z,1111.00
2023-04-26T10:04:24.888Z,1119.00
2023-04-26T10:05:24.845Z,1116.00
2023-04-26T10:06:24.842Z,1119.00
2023-04-26T10:07:24.840Z,1122.00
2023-04-26T10:08:24.802Z,1124.00
2023-04-26T10:09:29.953Z,1114.00
2023-04-26T10:10:24.829Z,1119.00
2023-04-26T10:11:24.799Z,1106.00
2023-04-26T10:12:24.782Z,1106.00
2023-04-26T10:13:24.769Z,1099.00
2023-04-26T10:14:24.728Z,1098.00
2023-04-26T10:15:24.736Z,1173.00
2023-04-26T10:16:24.752Z,1112.00
2023-04-26T10:17:24.725Z,1138.00
2023-04-26T10:18:24.711Z,1134.00
2023-04-26T10:19:24.685Z,1227.00
2023-04-26T10:20:24.665Z,1131.00
2023-04-26T10:21:24.683Z,1137.00
2023-04-26T10:22:24.625Z,1144.00
2023-04-26T10:23:24.609Z,1167.00
2023-04-26T10:24:24.694Z,1121.00
2023-04-26T10:25:24.618Z,1207.00
2023-04-26T10:26:24.569Z,1205.00
2023-04-26T10:27:24.578Z,1188.00
2023-04-26T10:28:24.553Z,1202.00
2023-04-26T10:29:24.579Z,1181.00
2023-04-26T10:30:24.534Z,1183.00
2023-04-26T10:31:24.554Z,1185.00
2023-04-26T10:32:24.510Z,1185.00
2023-04-26T10:33:24.563Z,1178.00
2023-04-26T10:34:24.514Z,1171.00
2023-04-26T10:35:24.525Z,1139.00
2023-04-26T10:36:24.551Z,1147.00
2023-04-26T10:37:24.555Z,1138.00
2023-04-26T10:38:24.601Z,1129.00
2023-04-26T10:39:24.584Z,1128.00
2023-04-26T10:40:24.719Z,1115.00
2023-04-26T10:41:24.769Z,1115.00
2023-04-26T10:42:25.459Z,1092.00
2023-04-26T10:43:26.091Z,1073.00
2023-04-26T10:44:24.692Z,1068.00
2023-04-26T10:45:24.826Z,1076.00
2023-04-26T10:46:24.759Z,1078.00
2023-04-26T10:47:24.813Z,1066.00
2023-04-26T10:48:24.820Z,1064.00
2023-04-26T10:49:26.651Z,1060.00
2023-04-26T10:50:24.892Z,1011.00
2023-04-26T10:51:24.939Z,1023.00
2023-04-26T10:52:24.936Z,1024.00
2023-04-26T10:53:24.974Z,1029.00
2023-04-26T10:54:25.000Z,1025.00
2023-04-26T10:55:25.549Z,1036.00
2023-04-26T10:56:25.101Z,1036.00
2023-04-26T10:57:25.072Z,1040.00
2023-04-26T10:58:25.095Z,1043.00
2023-04-26T10:59:39.681Z,1047.00
2023-04-26T11:00:27.047Z,1145.00
2023-04-26T11:01:25.117Z,1231.00
2023-04-26T11:02:25.138Z,1212.00
2023-04-26T11:03:25.194Z,1208.00
2023-04-26T11:04:25.127Z,1185.00
2023-04-26T11:05:25.484Z,1180.00
2023-04-26T11:06:25.015Z,1190.00
2023-04-26T11:07:24.994Z,1192.00
2023-04-26T11:08:24.966Z,1184.00
2023-04-26T11:09:24.945Z,1181.00
2023-04-26T11:10:25.794Z,1177.00
2023-04-26T11:11:24.891Z,1129.00
2023-04-26T11:12:24.857Z,1142.00
2023-04-26T11:13:24.825Z,1152.00
2023-04-26T11:14:24.793Z,1160.00
2023-04-26T11:15:24.763Z,1161.00
2023-04-26T11:16:24.795Z,1155.00
2023-04-26T11:17:24.696Z,1103.00
2023-04-26T11:18:24.650Z,1103.00
2023-04-26T11:19:24.627Z,1091.00
2023-04-26T11:20:24.582Z,1132.00
2023-04-26T11:21:24.559Z,1132.00
2023-04-26T11:22:24.557Z,1138.00
2023-04-26T11:23:24.482Z,1145.00
2023-04-26T11:24:24.436Z,1146.00
2023-04-26T11:25:24.410Z,1136.00
2023-04-26T11:26:24.364Z,1127.00
2023-04-26T11:27:24.324Z,1123.00
2023-04-26T11:28:24.295Z,1099.00
2023-04-26T11:29:24.267Z,1104.00
2023-04-26T11:30:24.254Z,1096.00
2023-04-26T11:31:24.257Z,1075.00
2023-04-26T11:32:24.127Z,1064.00
2023-04-26T11:33:24.115Z,1063.00
2023-04-26T11:34:24.044Z,1056.00
2023-04-26T11:35:24.015Z,1053.00
2023-04-26T11:36:23.975Z,1015.00
2023-04-26T11:37:23.963Z,1023.00
2023-04-26T11:38:23.971Z,1029.00
2023-04-26T11:39:24.001Z,1032.00
2023-04-26T11:40:24.018Z,1033.00
2023-04-26T11:41:24.043Z,1030.00
2023-04-26T11:42:24.048Z,1024.00
2023-04-26T11:43:24.084Z,1021.00
2023-04-26T11:44:24.120Z,1018.00
2023-04-26T11:45:24.309Z,1013.00
2023-04-26T11:46:24.249Z,1010.00
2023-04-26T11:47:24.191Z,1005.00
2023-04-26T11:48:24.213Z,997.00
2023-04-26T11:49:24.215Z,998.00
2023-04-26T11:50:24.255Z,999.00
2023-04-26T11:51:24.298Z,995.00
2023-04-26T11:52:24.301Z,993.00
2023-04-26T11:53:24.349Z,991.00
2023-04-26T11:54:24.366Z,987.00
2023-04-26T11:55:24.404Z,979.00
2023-04-26T11:56:24.433Z,975.00
2023-04-26T11:57:24.446Z,965.00
2023-04-26T11:58:24.479Z,954.00
2023-04-26T11:59:24.495Z,943.00
2023-04-26T12:00:24.504Z,938.00
2023-04-26T12:01:24.571Z,936.00
2023-04-26T12:02:24.677Z,933.00
2023-04-26T12:03:24.755Z,932.00
2023-04-26T12:04:25.959Z,931.00
2023-04-26T12:05:24.676Z,931.00
2023-04-26T12:06:24.542Z,930.00
2023-04-26T12:07:24.499Z,929.00
2023-04-26T12:08:24.477Z,925.00
2023-04-26T12:09:24.442Z,928.00
2023-04-26T12:10:24.409Z,930.00
2023-04-26T12:11:24.414Z,926.00
2023-04-26T12:12:24.428Z,926.00
2023-04-26T12:13:24.340Z,924.00
2023-04-26T12:14:24.302Z,921.00
2023-04-26T12:15:24.271Z,918.00
2023-04-26T12:16:26.683Z,917.00
2023-04-26T12:17:24.361Z,918.00
2023-04-26T12:18:24.190Z,919.00
2023-04-26T12:19:24.151Z,919.00
2023-04-26T12:20:24.118Z,921.00